sensor_id;sensor_type;location;lat;lon;timestamp;P1;durP1;ratioP1;P2;durP2;ratioP2
63492;SDS011;49638;47.526;10.028;2022-07-29T00:00:04;2.20;;;1.95;;
63492;SDS011;49638;47.526;10.028;2022-07-29T00:03:06;2.25;;;2.05;;
63492;SDS011;49638;47.526;10.028;2022-07-29T00:06:06;2.28;;;2.00;;
63492;SDS011;49638;47.526;10.028;2022-07-29T00:09:06;2.85;;;2.17;;
63492;SDS011;49638;47.526;10.028;2022-07-29T00:12:07;2.22;;;2.03;;
63492;SDS011;49638;47.526;10.028;2022-07-29T00:15:07;2.60;;;2.13;;
63492;SDS011;49638;47.526;10.028;2022-07-29T00:18:08;4.38;;;2.25;;
63492;SDS011;49638;47.526;10.028;2022-07-29T00:21:08;1.90;;;1.70;;
63492;SDS011;49638;47.526;10.028;2022-07-29T00:24:08;2.25;;;1.90;;
63492;SDS011;49638;47.526;10.028;2022-07-29T00:27:09;2.13;;;1.90;;
63492;SDS011;49638;47.526;10.028;2022-07-29T00:30:09;1.98;;;1.80;;
63492;SDS011;49638;47.526;10.028;2022-07-29T00:33:09;3.13;;;1.70;;
63492;SDS011;49638;47.526;10.028;2022-07-29T00:36:10;2.35;;;1.98;;
63492;SDS011;49638;47.526;10.028;2022-07-29T00:39:10;1.83;;;1.70;;
63492;SDS011;49638;47.526;10.028;2022-07-29T00:42:10;2.20;;;2.00;;
63492;SDS011;49638;47.526;10.028;2022-07-29T00:45:11;2.22;;;2.03;;
63492;SDS011;49638;47.526;10.028;2022-07-29T00:48:12;3.13;;;2.10;;
63492;SDS011;49638;47.526;10.028;2022-07-29T00:51:12;6.63;;;1.85;;
63492;SDS011;49638;47.526;10.028;2022-07-29T00:54:14;1.90;;;1.70;;
63492;SDS011;49638;47.526;10.028;2022-07-29T00:57:14;2.08;;;1.88;;
63492;SDS011;49638;47.526;10.028;2022-07-29T01:00:17;2.22;;;2.03;;
63492;SDS011;49638;47.526;10.028;2022-07-29T01:03:19;3.20;;;1.70;;
63492;SDS011;49638;47.526;10.028;2022-07-29T01:06:20;2.20;;;2.00;;
63492;SDS011;49638;47.526;10.028;2022-07-29T01:09:20;2.55;;;2.10;;
63492;SDS011;49638;47.526;10.028;2022-07-29T01:12:23;2.50;;;2.30;;
63492;SDS011;49638;47.526;10.028;2022-07-29T01:18:30;1.67;;;1.58;;
63492;SDS011;49638;47.526;10.028;2022-07-29T01:22:10;3.35;;;2.10;;
63492;SDS011;49638;47.526;10.028;2022-07-29T01:31:57;4.03;;;2.00;;
63492;SDS011;49638;47.526;10.028;2022-07-29T01:35:03;3.35;;;2.10;;
63492;SDS011;49638;47.526;10.028;2022-07-29T01:38:10;2.28;;;2.05;;
63492;SDS011;49638;47.526;10.028;2022-07-29T01:41:17;2.92;;;1.95;;
63492;SDS011;49638;47.526;10.028;2022-07-29T01:44:23;3.05;;;1.95;;
63492;SDS011;49638;47.526;10.028;2022-07-29T01:48:18;3.38;;;2.40;;
63492;SDS011;49638;47.526;10.028;2022-07-29T01:51:11;2.20;;;2.00;;
63492;SDS011;49638;47.526;10.028;2022-07-29T01:54:20;2.97;;;2.28;;
63492;SDS011;49638;47.526;10.028;2022-07-29T01:57:44;4.28;;;2.30;;
63492;SDS011;49638;47.526;10.028;2022-07-29T02:00:47;2.67;;;2.00;;
63492;SDS011;49638;47.526;10.028;2022-07-29T02:03:49;4.55;;;2.45;;
63492;SDS011;49638;47.526;10.028;2022-07-29T02:06:51;3.28;;;2.30;;
63492;SDS011;49638;47.526;10.028;2022-07-29T02:09:53;5.35;;;2.58;;
63492;SDS011;49638;47.526;10.028;2022-07-29T02:12:55;4.53;;;2.47;;
63492;SDS011;49638;47.526;10.028;2022-07-29T02:15:58;3.00;;;2.50;;
63492;SDS011;49638;47.526;10.028;2022-07-29T02:19:00;2.80;;;2.25;;
63492;SDS011;49638;47.526;10.028;2022-07-29T02:22:02;3.38;;;2.40;;
63492;SDS011;49638;47.526;10.028;2022-07-29T02:25:06;5.60;;;2.80;;
63492;SDS011;49638;47.526;10.028;2022-07-29T02:28:08;3.53;;;2.38;;
63492;SDS011;49638;47.526;10.028;2022-07-29T02:31:08;3.05;;;2.63;;
63492;SDS011;49638;47.526;10.028;2022-07-29T02:34:09;2.67;;;2.33;;
63492;SDS011;49638;47.526;10.028;2022-07-29T02:37:11;3.35;;;2.42;;
63492;SDS011;49638;47.526;10.028;2022-07-29T02:40:13;2.67;;;2.47;;
63492;SDS011;49638;47.526;10.028;2022-07-29T02:43:15;2.50;;;2.30;;
63492;SDS011;49638;47.526;10.028;2022-07-29T02:46:19;4.13;;;2.53;;
63492;SDS011;49638;47.526;10.028;2022-07-29T02:49:40;2.85;;;2.13;;
63492;SDS011;49638;47.526;10.028;2022-07-29T02:52:47;3.20;;;1.92;;
63492;SDS011;49638;47.526;10.028;2022-07-29T02:55:58;2.55;;;2.35;;
63492;SDS011;49638;47.526;10.028;2022-07-29T02:59:03;2.70;;;2.22;;
63492;SDS011;49638;47.526;10.028;2022-07-29T03:02:06;3.78;;;2.60;;
63492;SDS011;49638;47.526;10.028;2022-07-29T03:05:09;2.70;;;2.50;;
63492;SDS011;49638;47.526;10.028;2022-07-29T03:08:12;2.67;;;2.20;;
63492;SDS011;49638;47.526;10.028;2022-07-29T03:11:15;2.63;;;2.30;;
63492;SDS011;49638;47.526;10.028;2022-07-29T03:14:17;3.63;;;2.72;;
63492;SDS011;49638;47.526;10.028;2022-07-29T03:17:19;2.95;;;2.47;;
63492;SDS011;49638;47.526;10.028;2022-07-29T03:20:19;4.68;;;2.88;;
63492;SDS011;49638;47.526;10.028;2022-07-29T03:23:20;5.00;;;2.72;;
63492;SDS011;49638;47.526;10.028;2022-07-29T03:26:22;4.15;;;2.47;;
63492;SDS011;49638;47.526;10.028;2022-07-29T03:29:23;5.10;;;2.83;;
63492;SDS011;49638;47.526;10.028;2022-07-29T03:32:24;4.57;;;2.97;;
63492;SDS011;49638;47.526;10.028;2022-07-29T03:35:24;7.70;;;3.17;;
63492;SDS011;49638;47.526;10.028;2022-07-29T03:38:25;4.88;;;3.00;;
63492;SDS011;49638;47.526;10.028;2022-07-29T03:41:29;2.80;;;2.42;;
63492;SDS011;49638;47.526;10.028;2022-07-29T03:44:31;4.93;;;2.70;;
63492;SDS011;49638;47.526;10.028;2022-07-29T03:47:32;3.00;;;2.53;;
63492;SDS011;49638;47.526;10.028;2022-07-29T03:50:35;2.80;;;2.50;;
63492;SDS011;49638;47.526;10.028;2022-07-29T03:53:36;3.35;;;2.50;;
63492;SDS011;49638;47.526;10.028;2022-07-29T03:56:38;4.97;;;2.65;;
63492;SDS011;49638;47.526;10.028;2022-07-29T03:59:42;3.55;;;2.38;;
63492;SDS011;49638;47.526;10.028;2022-07-29T04:02:43;5.05;;;2.35;;
63492;SDS011;49638;47.526;10.028;2022-07-29T04:06:01;3.95;;;2.40;;
63492;SDS011;49638;47.526;10.028;2022-07-29T04:09:03;3.05;;;2.65;;
63492;SDS011;49638;47.526;10.028;2022-07-29T04:12:03;6.60;;;3.03;;
63492;SDS011;49638;47.526;10.028;2022-07-29T04:15:04;3.53;;;2.97;;
63492;SDS011;49638;47.526;10.028;2022-07-29T04:18:05;4.93;;;3.10;;
63492;SDS011;49638;47.526;10.028;2022-07-29T04:21:05;3.88;;;3.38;;
63492;SDS011;49638;47.526;10.028;2022-07-29T04:24:06;3.55;;;3.22;;
63492;SDS011;49638;47.526;10.028;2022-07-29T04:27:07;4.40;;;3.22;;
63492;SDS011;49638;47.526;10.028;2022-07-29T04:30:07;5.70;;;3.17;;
63492;SDS011;49638;47.526;10.028;2022-07-29T04:33:08;6.65;;;3.28;;
63492;SDS011;49638;47.526;10.028;2022-07-29T04:36:08;3.42;;;3.13;;
63492;SDS011;49638;47.526;10.028;2022-07-29T04:39:10;4.05;;;3.00;;
63492;SDS011;49638;47.526;10.028;2022-07-29T04:42:11;4.80;;;3.40;;
63492;SDS011;49638;47.526;10.028;2022-07-29T04:45:11;4.05;;;3.25;;
63492;SDS011;49638;47.526;10.028;2022-07-29T04:48:11;4.18;;;3.20;;
63492;SDS011;49638;47.526;10.028;2022-07-29T04:51:12;4.53;;;2.67;;
63492;SDS011;49638;47.526;10.028;2022-07-29T04:54:12;3.88;;;2.80;;
63492;SDS011;49638;47.526;10.028;2022-07-29T04:57:13;2.85;;;2.50;;
63492;SDS011;49638;47.526;10.028;2022-07-29T05:00:13;2.92;;;2.47;;
63492;SDS011;49638;47.526;10.028;2022-07-29T05:03:14;2.67;;;2.47;;
63492;SDS011;49638;47.526;10.028;2022-07-29T05:06:14;5.15;;;2.70;;
63492;SDS011;49638;47.526;10.028;2022-07-29T05:09:14;3.15;;;2.85;;
63492;SDS011;49638;47.526;10.028;2022-07-29T05:12:14;3.47;;;2.88;;
63492;SDS011;49638;47.526;10.028;2022-07-29T05:15:15;4.32;;;2.97;;
63492;SDS011;49638;47.526;10.028;2022-07-29T05:18:16;3.67;;;3.38;;
63492;SDS011;49638;47.526;10.028;2022-07-29T05:21:16;4.57;;;3.30;;
63492;SDS011;49638;47.526;10.028;2022-07-29T05:24:17;4.03;;;3.25;;
63492;SDS011;49638;47.526;10.028;2022-07-29T05:27:17;3.75;;;3.45;;
63492;SDS011;49638;47.526;10.028;2022-07-29T05:30:17;6.72;;;3.85;;
63492;SDS011;49638;47.526;10.028;2022-07-29T05:33:18;6.68;;;3.08;;
63492;SDS011;49638;47.526;10.028;2022-07-29T05:36:18;2.85;;;2.65;;
63492;SDS011;49638;47.526;10.028;2022-07-29T05:39:19;3.20;;;2.50;;
63492;SDS011;49638;47.526;10.028;2022-07-29T05:42:19;2.92;;;2.60;;
63492;SDS011;49638;47.526;10.028;2022-07-29T05:45:19;4.00;;;2.83;;
63492;SDS011;49638;47.526;10.028;2022-07-29T05:48:19;3.22;;;2.92;;
63492;SDS011;49638;47.526;10.028;2022-07-29T05:51:20;3.40;;;3.08;;
63492;SDS011;49638;47.526;10.028;2022-07-29T05:54:20;2.95;;;2.70;;
63492;SDS011;49638;47.526;10.028;2022-07-29T05:57:21;3.30;;;2.90;;
63492;SDS011;49638;47.526;10.028;2022-07-29T06:00:22;3.88;;;2.97;;
63492;SDS011;49638;47.526;10.028;2022-07-29T06:03:23;4.35;;;3.67;;
63492;SDS011;49638;47.526;10.028;2022-07-29T06:06:23;4.45;;;3.30;;
63492;SDS011;49638;47.526;10.028;2022-07-29T06:09:23;3.95;;;3.55;;
63492;SDS011;49638;47.526;10.028;2022-07-29T06:12:24;6.93;;;2.67;;
63492;SDS011;49638;47.526;10.028;2022-07-29T06:15:24;3.72;;;2.65;;
63492;SDS011;49638;47.526;10.028;2022-07-29T06:18:24;3.33;;;2.97;;
63492;SDS011;49638;47.526;10.028;2022-07-29T06:21:24;5.25;;;3.10;;
63492;SDS011;49638;47.526;10.028;2022-07-29T06:24:25;4.68;;;3.10;;
63492;SDS011;49638;47.526;10.028;2022-07-29T06:27:25;3.53;;;2.97;;
63492;SDS011;49638;47.526;10.028;2022-07-29T06:30:26;2.85;;;2.55;;
63492;SDS011;49638;47.526;10.028;2022-07-29T06:33:26;4.90;;;2.90;;
63492;SDS011;49638;47.526;10.028;2022-07-29T06:36:26;4.80;;;2.88;;
63492;SDS011;49638;47.526;10.028;2022-07-29T06:39:27;3.53;;;3.05;;
63492;SDS011;49638;47.526;10.028;2022-07-29T06:42:27;5.68;;;3.35;;
63492;SDS011;49638;47.526;10.028;2022-07-29T06:45:28;4.03;;;3.10;;
63492;SDS011;49638;47.526;10.028;2022-07-29T06:48:28;3.42;;;3.13;;
63492;SDS011;49638;47.526;10.028;2022-07-29T06:51:29;3.63;;;3.03;;
63492;SDS011;49638;47.526;10.028;2022-07-29T06:54:29;5.95;;;2.97;;
63492;SDS011;49638;47.526;10.028;2022-07-29T06:57:29;3.33;;;2.95;;
63492;SDS011;49638;47.526;10.028;2022-07-29T07:00:30;4.10;;;3.03;;
63492;SDS011;49638;47.526;10.028;2022-07-29T07:03:30;3.83;;;3.05;;
63492;SDS011;49638;47.526;10.028;2022-07-29T07:06:31;6.03;;;3.47;;
63492;SDS011;49638;47.526;10.028;2022-07-29T07:09:32;7.72;;;3.65;;
63492;SDS011;49638;47.526;10.028;2022-07-29T07:12:32;4.18;;;3.80;;
63492;SDS011;49638;47.526;10.028;2022-07-29T07:15:32;4.82;;;3.95;;
63492;SDS011;49638;47.526;10.028;2022-07-29T07:18:33;4.53;;;4.10;;
63492;SDS011;49638;47.526;10.028;2022-07-29T07:21:33;12.15;;;5.50;;
63492;SDS011;49638;47.526;10.028;2022-07-29T07:24:33;4.75;;;3.92;;
63492;SDS011;49638;47.526;10.028;2022-07-29T07:27:34;5.70;;;3.65;;
63492;SDS011;49638;47.526;10.028;2022-07-29T07:30:35;4.13;;;3.72;;
63492;SDS011;49638;47.526;10.028;2022-07-29T07:33:35;3.83;;;3.53;;
63492;SDS011;49638;47.526;10.028;2022-07-29T07:36:35;5.93;;;3.63;;
63492;SDS011;49638;47.526;10.028;2022-07-29T07:39:35;4.47;;;3.83;;
63492;SDS011;49638;47.526;10.028;2022-07-29T07:42:36;4.68;;;3.80;;
63492;SDS011;49638;47.526;10.028;2022-07-29T07:45:38;11.68;;;4.40;;
63492;SDS011;49638;47.526;10.028;2022-07-29T07:48:40;5.05;;;3.72;;
63492;SDS011;49638;47.526;10.028;2022-07-29T07:51:40;3.35;;;2.92;;
63492;SDS011;49638;47.526;10.028;2022-07-29T07:54:40;9.25;;;4.20;;
63492;SDS011;49638;47.526;10.028;2022-07-29T07:57:41;4.78;;;3.47;;
63492;SDS011;49638;47.526;10.028;2022-07-29T08:00:41;3.90;;;3.50;;
63492;SDS011;49638;47.526;10.028;2022-07-29T08:03:41;4.72;;;3.53;;
63492;SDS011;49638;47.526;10.028;2022-07-29T08:06:41;5.05;;;3.17;;
63492;SDS011;49638;47.526;10.028;2022-07-29T08:09:42;4.30;;;2.92;;
63492;SDS011;49638;47.526;10.028;2022-07-29T08:12:42;5.15;;;3.03;;
63492;SDS011;49638;47.526;10.028;2022-07-29T08:15:42;3.55;;;3.17;;
63492;SDS011;49638;47.526;10.028;2022-07-29T08:18:45;5.68;;;3.03;;
63492;SDS011;49638;47.526;10.028;2022-07-29T08:21:46;2.90;;;2.58;;
63492;SDS011;49638;47.526;10.028;2022-07-29T08:24:46;4.15;;;3.00;;
63492;SDS011;49638;47.526;10.028;2022-07-29T08:27:52;3.30;;;3.00;;
63492;SDS011;49638;47.526;10.028;2022-07-29T08:30:52;5.00;;;2.60;;
63492;SDS011;49638;47.526;10.028;2022-07-29T08:33:53;3.25;;;2.65;;
63492;SDS011;49638;47.526;10.028;2022-07-29T08:36:53;4.50;;;2.90;;
63492;SDS011;49638;47.526;10.028;2022-07-29T08:39:53;3.20;;;2.90;;
63492;SDS011;49638;47.526;10.028;2022-07-29T08:42:53;4.28;;;2.92;;
63492;SDS011;49638;47.526;10.028;2022-07-29T08:45:54;2.95;;;2.65;;
63492;SDS011;49638;47.526;10.028;2022-07-29T08:48:55;3.92;;;2.80;;
63492;SDS011;49638;47.526;10.028;2022-07-29T08:51:55;3.13;;;2.80;;
63492;SDS011;49638;47.526;10.028;2022-07-29T08:54:57;3.67;;;2.92;;
63492;SDS011;49638;47.526;10.028;2022-07-29T08:57:57;2.75;;;2.55;;
63492;SDS011;49638;47.526;10.028;2022-07-29T09:00:59;2.60;;;2.15;;
63492;SDS011;49638;47.526;10.028;2022-07-29T09:04:02;2.80;;;2.60;;
63492;SDS011;49638;47.526;10.028;2022-07-29T09:07:04;2.83;;;2.50;;
63492;SDS011;49638;47.526;10.028;2022-07-29T09:10:06;6.05;;;2.72;;
63492;SDS011;49638;47.526;10.028;2022-07-29T09:13:06;2.65;;;2.45;;
63492;SDS011;49638;47.526;10.028;2022-07-29T09:16:07;3.05;;;2.45;;
63492;SDS011;49638;47.526;10.028;2022-07-29T09:19:19;2.53;;;2.00;;
63492;SDS011;49638;47.526;10.028;2022-07-29T09:22:29;4.07;;;2.40;;
63492;SDS011;49638;47.526;10.028;2022-07-29T09:28:34;2.92;;;2.30;;
63492;SDS011;49638;47.526;10.028;2022-07-29T09:31:43;3.83;;;2.80;;
63492;SDS011;49638;47.526;10.028;2022-07-29T09:34:45;3.20;;;2.83;;
63492;SDS011;49638;47.526;10.028;2022-07-29T09:37:45;5.22;;;3.22;;
63492;SDS011;49638;47.526;10.028;2022-07-29T09:40:55;6.32;;;2.90;;
63492;SDS011;49638;47.526;10.028;2022-07-29T09:43:57;3.17;;;2.88;;
63492;SDS011;49638;47.526;10.028;2022-07-29T09:46:59;4.72;;;2.90;;
63492;SDS011;49638;47.526;10.028;2022-07-29T09:50:07;3.10;;;2.75;;
63492;SDS011;49638;47.526;10.028;2022-07-29T09:53:07;2.83;;;2.63;;
63492;SDS011;49638;47.526;10.028;2022-07-29T09:56:11;4.50;;;2.95;;
63492;SDS011;49638;47.526;10.028;2022-07-29T09:59:11;3.45;;;3.15;;
63492;SDS011;49638;47.526;10.028;2022-07-29T10:02:12;4.85;;;3.13;;
63492;SDS011;49638;47.526;10.028;2022-07-29T10:05:23;3.35;;;2.88;;
63492;SDS011;49638;47.526;10.028;2022-07-29T10:08:25;3.67;;;3.38;;
63492;SDS011;49638;47.526;10.028;2022-07-29T10:11:26;3.63;;;3.05;;
63492;SDS011;49638;47.526;10.028;2022-07-29T10:14:27;3.38;;;2.72;;
63492;SDS011;49638;47.526;10.028;2022-07-29T10:17:27;3.42;;;3.08;;
63492;SDS011;49638;47.526;10.028;2022-07-29T10:20:28;3.47;;;2.97;;
63492;SDS011;49638;47.526;10.028;2022-07-29T10:23:29;4.00;;;2.97;;
63492;SDS011;49638;47.526;10.028;2022-07-29T10:26:29;5.57;;;3.28;;
63492;SDS011;49638;47.526;10.028;2022-07-29T10:29:30;4.05;;;3.65;;
63492;SDS011;49638;47.526;10.028;2022-07-29T10:32:34;3.67;;;3.38;;
63492;SDS011;49638;47.526;10.028;2022-07-29T10:35:47;4.13;;;3.25;;
63492;SDS011;49638;47.526;10.028;2022-07-29T10:42:39;4.63;;;3.47;;
63492;SDS011;49638;47.526;10.028;2022-07-29T10:45:41;5.10;;;3.60;;
63492;SDS011;49638;47.526;10.028;2022-07-29T10:52:04;3.20;;;2.90;;
63492;SDS011;49638;47.526;10.028;2022-07-29T10:55:07;4.28;;;3.28;;
63492;SDS011;49638;47.526;10.028;2022-07-29T10:58:25;3.05;;;2.85;;
63492;SDS011;49638;47.526;10.028;2022-07-29T11:01:28;3.22;;;2.60;;
63492;SDS011;49638;47.526;10.028;2022-07-29T11:20:58;2.35;;;2.17;;
63492;SDS011;49638;47.526;10.028;2022-07-29T11:24:12;2.17;;;2.00;;
63492;SDS011;49638;47.526;10.028;2022-07-29T11:27:17;2.25;;;2.05;;
63492;SDS011;49638;47.526;10.028;2022-07-29T11:30:22;4.50;;;2.15;;
63492;SDS011;49638;47.526;10.028;2022-07-29T11:33:50;2.60;;;2.40;;
63492;SDS011;49638;47.526;10.028;2022-07-29T11:40:10;2.90;;;2.70;;
63492;SDS011;49638;47.526;10.028;2022-07-29T11:43:12;2.83;;;2.50;;
63492;SDS011;49638;47.526;10.028;2022-07-29T11:46:51;2.17;;;1.90;;
63492;SDS011;49638;47.526;10.028;2022-07-29T11:49:53;2.92;;;2.10;;
63492;SDS011;49638;47.526;10.028;2022-07-29T11:52:54;3.85;;;2.10;;
63492;SDS011;49638;47.526;10.028;2022-07-29T11:55:55;2.20;;;2.00;;
63492;SDS011;49638;47.526;10.028;2022-07-29T11:59:03;2.40;;;2.20;;
63492;SDS011;49638;47.526;10.028;2022-07-29T12:02:04;2.10;;;1.90;;
63492;SDS011;49638;47.526;10.028;2022-07-29T12:05:05;3.08;;;2.10;;
63492;SDS011;49638;47.526;10.028;2022-07-29T12:08:06;2.25;;;1.80;;
63492;SDS011;49638;47.526;10.028;2022-07-29T12:11:15;1.92;;;1.70;;
63492;SDS011;49638;47.526;10.028;2022-07-29T12:17:27;2.88;;;1.90;;
63492;SDS011;49638;47.526;10.028;2022-07-29T12:20:28;2.00;;;1.90;;
63492;SDS011;49638;47.526;10.028;2022-07-29T12:23:29;2.15;;;1.80;;
63492;SDS011;49638;47.526;10.028;2022-07-29T12:26:31;1.80;;;1.70;;
63492;SDS011;49638;47.526;10.028;2022-07-29T12:29:32;1.90;;;1.80;;
63492;SDS011;49638;47.526;10.028;2022-07-29T12:32:34;1.73;;;1.63;;
63492;SDS011;49638;47.526;10.028;2022-07-29T12:35:42;3.55;;;2.08;;
63492;SDS011;49638;47.526;10.028;2022-07-29T12:38:45;2.05;;;1.95;;
63492;SDS011;49638;47.526;10.028;2022-07-29T12:41:46;3.08;;;1.88;;
63492;SDS011;49638;47.526;10.028;2022-07-29T12:44:47;2.00;;;1.80;;
63492;SDS011;49638;47.526;10.028;2022-07-29T12:47:52;3.22;;;2.00;;
63492;SDS011;49638;47.526;10.028;2022-07-29T12:54:08;2.00;;;1.90;;
63492;SDS011;49638;47.526;10.028;2022-07-29T12:57:10;2.00;;;1.90;;
63492;SDS011;49638;47.526;10.028;2022-07-29T13:00:11;2.35;;;1.90;;
63492;SDS011;49638;47.526;10.028;2022-07-29T13:03:12;2.00;;;1.90;;
63492;SDS011;49638;47.526;10.028;2022-07-29T13:06:29;1.83;;;1.73;;
63492;SDS011;49638;47.526;10.028;2022-07-29T13:09:42;2.33;;;1.73;;
63492;SDS011;49638;47.526;10.028;2022-07-29T13:16:07;2.38;;;2.17;;
63492;SDS011;49638;47.526;10.028;2022-07-29T13:19:09;3.80;;;2.20;;
63492;SDS011;49638;47.526;10.028;2022-07-29T13:22:12;3.30;;;2.25;;
63492;SDS011;49638;47.526;10.028;2022-07-29T13:25:13;7.43;;;2.58;;
63492;SDS011;49638;47.526;10.028;2022-07-29T13:28:14;3.05;;;2.35;;
63492;SDS011;49638;47.526;10.028;2022-07-29T13:31:14;2.67;;;2.33;;
63492;SDS011;49638;47.526;10.028;2022-07-29T13:34:14;2.50;;;2.30;;
63492;SDS011;49638;47.526;10.028;2022-07-29T13:37:15;2.35;;;2.20;;
63492;SDS011;49638;47.526;10.028;2022-07-29T13:40:16;2.13;;;1.95;;
63492;SDS011;49638;47.526;10.028;2022-07-29T13:43:17;2.42;;;2.22;;
63492;SDS011;49638;47.526;10.028;2022-07-29T13:46:17;5.85;;;2.22;;
63492;SDS011;49638;47.526;10.028;2022-07-29T13:49:17;2.67;;;2.13;;
63492;SDS011;49638;47.526;10.028;2022-07-29T13:52:17;2.47;;;2.22;;
63492;SDS011;49638;47.526;10.028;2022-07-29T13:55:18;2.97;;;1.95;;
63492;SDS011;49638;47.526;10.028;2022-07-29T13:58:18;3.50;;;2.45;;
63492;SDS011;49638;47.526;10.028;2022-07-29T14:01:18;2.38;;;2.17;;
63492;SDS011;49638;47.526;10.028;2022-07-29T14:04:19;2.92;;;2.17;;
63492;SDS011;49638;47.526;10.028;2022-07-29T14:07:19;2.50;;;2.30;;
63492;SDS011;49638;47.526;10.028;2022-07-29T14:10:19;2.85;;;2.10;;
63492;SDS011;49638;47.526;10.028;2022-07-29T14:13:20;3.58;;;2.28;;
63492;SDS011;49638;47.526;10.028;2022-07-29T14:16:20;2.55;;;2.30;;
63492;SDS011;49638;47.526;10.028;2022-07-29T14:19:21;2.67;;;2.47;;
63492;SDS011;49638;47.526;10.028;2022-07-29T14:22:21;2.58;;;2.30;;
63492;SDS011;49638;47.526;10.028;2022-07-29T14:25:22;2.70;;;2.13;;
63492;SDS011;49638;47.526;10.028;2022-07-29T14:28:23;3.08;;;2.10;;
63492;SDS011;49638;47.526;10.028;2022-07-29T14:31:23;2.60;;;2.40;;
63492;SDS011;49638;47.526;10.028;2022-07-29T14:34:24;2.65;;;2.45;;
63492;SDS011;49638;47.526;10.028;2022-07-29T14:37:24;5.05;;;2.28;;
63492;SDS011;49638;47.526;10.028;2022-07-29T14:40:24;3.15;;;2.28;;
63492;SDS011;49638;47.526;10.028;2022-07-29T14:43:25;2.30;;;2.10;;
63492;SDS011;49638;47.526;10.028;2022-07-29T14:46:26;2.50;;;2.30;;
63492;SDS011;49638;47.526;10.028;2022-07-29T14:49:27;3.60;;;2.15;;
63492;SDS011;49638;47.526;10.028;2022-07-29T14:52:27;2.20;;;2.00;;
63492;SDS011;49638;47.526;10.028;2022-07-29T14:55:28;2.00;;;1.90;;
63492;SDS011;49638;47.526;10.028;2022-07-29T14:58:28;2.13;;;2.03;;
63492;SDS011;49638;47.526;10.028;2022-07-29T15:01:31;2.33;;;2.13;;
63492;SDS011;49638;47.526;10.028;2022-07-29T15:04:31;2.53;;;2.28;;
63492;SDS011;49638;47.526;10.028;2022-07-29T15:07:31;5.13;;;2.30;;
63492;SDS011;49638;47.526;10.028;2022-07-29T15:10:31;2.60;;;2.40;;
63492;SDS011;49638;47.526;10.028;2022-07-29T15:13:32;4.43;;;2.63;;
63492;SDS011;49638;47.526;10.028;2022-07-29T15:16:35;4.25;;;2.60;;
63492;SDS011;49638;47.526;10.028;2022-07-29T15:19:36;4.13;;;2.60;;
63492;SDS011;49638;47.526;10.028;2022-07-29T15:22:37;8.90;;;3.33;;
63492;SDS011;49638;47.526;10.028;2022-07-29T15:25:38;4.82;;;3.40;;
63492;SDS011;49638;47.526;10.028;2022-07-29T15:28:39;6.63;;;3.80;;
63492;SDS011;49638;47.526;10.028;2022-07-29T15:31:40;7.00;;;3.83;;
63492;SDS011;49638;47.526;10.028;2022-07-29T15:34:40;4.28;;;3.88;;
63492;SDS011;49638;47.526;10.028;2022-07-29T15:37:40;4.65;;;4.10;;
63492;SDS011;49638;47.526;10.028;2022-07-29T15:40:40;5.65;;;4.38;;
63492;SDS011;49638;47.526;10.028;2022-07-29T15:43:43;6.10;;;4.30;;
63492;SDS011;49638;47.526;10.028;2022-07-29T15:46:45;5.70;;;4.05;;
63492;SDS011;49638;47.526;10.028;2022-07-29T15:50:05;4.43;;;3.72;;
63492;SDS011;49638;47.526;10.028;2022-07-29T15:53:06;5.10;;;3.72;;
63492;SDS011;49638;47.526;10.028;2022-07-29T15:56:06;4.82;;;4.07;;
63492;SDS011;49638;47.526;10.028;2022-07-29T15:59:07;4.00;;;3.60;;
63492;SDS011;49638;47.526;10.028;2022-07-29T16:02:07;4.10;;;3.70;;
63492;SDS011;49638;47.526;10.028;2022-07-29T16:05:07;4.82;;;4.32;;
63492;SDS011;49638;47.526;10.028;2022-07-29T16:08:08;4.80;;;3.83;;
63492;SDS011;49638;47.526;10.028;2022-07-29T16:11:08;4.35;;;3.97;;
63492;SDS011;49638;47.526;10.028;2022-07-29T16:14:09;5.47;;;4.25;;
63492;SDS011;49638;47.526;10.028;2022-07-29T16:17:10;5.72;;;4.60;;
63492;SDS011;49638;47.526;10.028;2022-07-29T16:20:11;4.97;;;3.95;;
63492;SDS011;49638;47.526;10.028;2022-07-29T16:23:11;4.60;;;4.03;;
63492;SDS011;49638;47.526;10.028;2022-07-29T16:26:11;4.20;;;3.80;;
63492;SDS011;49638;47.526;10.028;2022-07-29T16:29:12;4.72;;;4.15;;
63492;SDS011;49638;47.526;10.028;2022-07-29T16:32:12;4.72;;;3.90;;
63492;SDS011;49638;47.526;10.028;2022-07-29T16:35:12;5.15;;;4.57;;
63492;SDS011;49638;47.526;10.028;2022-07-29T16:38:13;5.10;;;4.43;;
63492;SDS011;49638;47.526;10.028;2022-07-29T16:41:13;5.90;;;4.30;;
63492;SDS011;49638;47.526;10.028;2022-07-29T16:44:14;7.50;;;4.75;;
63492;SDS011;49638;47.526;10.028;2022-07-29T16:47:14;5.10;;;4.60;;
63492;SDS011;49638;47.526;10.028;2022-07-29T16:50:15;6.25;;;4.68;;
63492;SDS011;49638;47.526;10.028;2022-07-29T16:53:15;6.60;;;4.90;;
63492;SDS011;49638;47.526;10.028;2022-07-29T16:56:15;7.10;;;5.20;;
63492;SDS011;49638;47.526;10.028;2022-07-29T16:59:16;6.30;;;4.70;;
63492;SDS011;49638;47.526;10.028;2022-07-29T17:02:16;5.53;;;4.95;;
63492;SDS011;49638;47.526;10.028;2022-07-29T17:05:17;5.85;;;5.15;;
63492;SDS011;49638;47.526;10.028;2022-07-29T17:08:17;8.57;;;4.80;;
63492;SDS011;49638;47.526;10.028;2022-07-29T17:11:19;6.97;;;5.25;;
63492;SDS011;49638;47.526;10.028;2022-07-29T17:14:19;5.43;;;4.63;;
63492;SDS011;49638;47.526;10.028;2022-07-29T17:17:24;6.10;;;4.60;;
63492;SDS011;49638;47.526;10.028;2022-07-29T17:20:24;7.78;;;4.85;;
63492;SDS011;49638;47.526;10.028;2022-07-29T17:23:25;6.07;;;5.07;;
63492;SDS011;49638;47.526;10.028;2022-07-29T17:26:27;7.63;;;5.38;;
63492;SDS011;49638;47.526;10.028;2022-07-29T17:29:28;5.97;;;4.50;;
63492;SDS011;49638;47.526;10.028;2022-07-29T17:32:28;5.72;;;5.15;;
63492;SDS011;49638;47.526;10.028;2022-07-29T17:35:28;6.85;;;5.18;;
63492;SDS011;49638;47.526;10.028;2022-07-29T17:38:47;6.03;;;5.15;;
63492;SDS011;49638;47.526;10.028;2022-07-29T17:41:48;8.40;;;5.60;;
63492;SDS011;49638;47.526;10.028;2022-07-29T17:44:48;5.60;;;5.00;;
63492;SDS011;49638;47.526;10.028;2022-07-29T17:47:49;6.30;;;5.13;;
63492;SDS011;49638;47.526;10.028;2022-07-29T17:50:49;5.80;;;5.18;;
63492;SDS011;49638;47.526;10.028;2022-07-29T17:53:49;5.57;;;5.07;;
63492;SDS011;49638;47.526;10.028;2022-07-29T17:56:50;6.43;;;4.90;;
63492;SDS011;49638;47.526;10.028;2022-07-29T17:59:50;5.25;;;4.45;;
63492;SDS011;49638;47.526;10.028;2022-07-29T18:02:50;5.28;;;4.53;;
63492;SDS011;49638;47.526;10.028;2022-07-29T18:05:51;5.28;;;4.30;;
63492;SDS011;49638;47.526;10.028;2022-07-29T18:08:52;5.65;;;4.95;;
63492;SDS011;49638;47.526;10.028;2022-07-29T18:11:52;7.78;;;5.07;;
63492;SDS011;49638;47.526;10.028;2022-07-29T18:14:53;4.60;;;4.20;;
63492;SDS011;49638;47.526;10.028;2022-07-29T18:17:53;6.13;;;4.60;;
63492;SDS011;49638;47.526;10.028;2022-07-29T18:20:53;6.13;;;4.47;;
63492;SDS011;49638;47.526;10.028;2022-07-29T18:23:54;4.38;;;3.97;;
63492;SDS011;49638;47.526;10.028;2022-07-29T18:26:54;4.90;;;4.40;;
63492;SDS011;49638;47.526;10.028;2022-07-29T18:29:55;5.68;;;4.57;;
63492;SDS011;49638;47.526;10.028;2022-07-29T18:32:55;5.78;;;4.10;;
63492;SDS011;49638;47.526;10.028;2022-07-29T18:35:56;4.53;;;4.13;;
63492;SDS011;49638;47.526;10.028;2022-07-29T18:38:56;5.07;;;3.80;;
63492;SDS011;49638;47.526;10.028;2022-07-29T18:41:56;3.63;;;3.33;;
63492;SDS011;49638;47.526;10.028;2022-07-29T18:44:57;3.63;;;3.33;;
63492;SDS011;49638;47.526;10.028;2022-07-29T18:47:57;4.45;;;3.70;;